Pagrindinis puslapis
METAR-TAF:

METAR-TAF

Oro uostai :

Korumba, Pietų Mato Grosas, Brazilija

platuma: 19-05S, ilguma: 057-30W, Aukštis: 130 m

Dabartinis oras

Ataskaita buvo paskelbta 19 minutes, ne 13:00 UTC
Vėjas 6 kt iš Pietvakarių, svyruoja nuo Pietų ir Vakarų
Temperatūra 25°C
Drėgmė 79%
Slėgis 1016 hPa
Matomumas: 7000 m

METAR: SBCR 201300Z 22006KT 190V260 7000 NSC 25/21 Q1016

Laikas: 09:19 (13:19 UTC)

Prognozė

Ataskaita buvo paskelbta 3 valandos ir 19 minutes, ne 10:00 UTC
Prognozė galioja nuo 20 metu 12 UTC su 21 metu 12 UTC
Vėjas 10 kt iš Pietvakarių
Matomumas: 5000 m
Išsisklaidę debesys ne aukštis 4000 ft
migla
Laikinai
nuo 20 metu 16 UTC su 20 metu 21 UTC
Matomumas: 7000 m

TAF: SBCR 201000Z 2012/2112 23010KT 5000 HZ SCT040 TN24/2012Z TX29/2018Z TEMPO 2016/2021 7000 NSW RMK PGD

Orai ataskaitas ir orų prognozės (METAR, TAF).

turimą stotys yra geltonos ir raudonos taškus žemėlapyje.

Perkelti pele per norėdami pamatyti stoties vardą.

Tada spustelėkite, norėdami matyti oro stebėjimo ir prognozės.

Norėdami pakeisti žemėlapį: spustelėkite ant žalios mygtukų su juodo kryžiaus žemyn,; žalią mygtuką su brūkšneliu, jei norite nutolinti; arba žalių rodyklių gretimoms žemėlapius.


METAR-TAF: